createdAt,value
2022-08-24T00:00:22.904Z,8.77
2022-08-24T00:01:25.255Z,8.82
2022-08-24T00:02:27.213Z,9.07
2022-08-24T00:03:34.149Z,9.70
2022-08-24T00:04:36.823Z,10.23
2022-08-24T00:05:38.412Z,9.98
2022-08-24T00:06:40.039Z,10.32
2022-08-24T00:07:41.869Z,10.63
2022-08-24T00:08:44.810Z,10.93
2022-08-24T00:09:49.983Z,10.40
2022-08-24T00:10:52.689Z,10.20
2022-08-24T00:11:54.388Z,11.02
2022-08-24T00:12:55.958Z,11.18
2022-08-24T00:13:57.668Z,11.77
2022-08-24T00:15:00.095Z,12.07
2022-08-24T00:16:02.716Z,12.10
2022-08-24T00:17:05.060Z,11.63
2022-08-24T00:18:07.195Z,12.27
2022-08-24T00:19:09.047Z,12.02
2022-08-24T00:20:12.393Z,11.57
2022-08-24T00:21:14.335Z,12.30
2022-08-24T00:22:16.100Z,11.73
2022-08-24T00:23:17.659Z,10.32
2022-08-24T00:24:20.042Z,10.25
2022-08-24T00:25:22.008Z,10.93
2022-08-24T00:26:29.063Z,10.75
2022-08-24T00:27:31.453Z,10.93
2022-08-24T00:28:33.157Z,10.75
2022-08-24T00:29:35.373Z,10.82
2022-08-24T00:30:37.105Z,10.30
2022-08-24T00:31:39.183Z,9.93
2022-08-24T00:32:41.908Z,9.35
2022-08-24T00:33:43.596Z,9.88
2022-08-24T00:34:58.114Z,10.32
2022-08-24T00:36:01.458Z,10.80
2022-08-24T00:37:04.027Z,10.02
2022-08-24T00:38:05.923Z,10.18
2022-08-24T00:39:08.763Z,10.70
2022-08-24T00:40:17.549Z,10.43
2022-08-24T00:41:19.269Z,10.05
2022-08-24T00:42:20.966Z,9.43
2022-08-24T00:43:25.633Z,10.23
2022-08-24T00:44:27.254Z,10.10
2022-08-24T00:45:29.686Z,10.68
2022-08-24T00:46:44.415Z,9.70
2022-08-24T00:47:56.888Z,10.52
2022-08-24T00:49:08.014Z,9.85
2022-08-24T00:50:14.319Z,10.20
2022-08-24T00:51:26.183Z,9.70
2022-08-24T00:52:33.404Z,9.52
2022-08-24T00:53:40.155Z,9.85
2022-08-24T00:54:53.276Z,9.85
2022-08-24T00:55:58.342Z,10.80
2022-08-24T00:57:04.397Z,10.63
2022-08-24T00:58:17.132Z,9.98
2022-08-24T00:59:37.078Z,9.55
2022-08-24T01:00:49.297Z,10.65
2022-08-24T01:01:52.361Z,9.98
2022-08-24T01:02:58.691Z,9.32
2022-08-24T01:04:01.469Z,9.43
2022-08-24T01:05:06.985Z,10.18
2022-08-24T01:06:09.661Z,9.05
2022-08-24T01:07:11.832Z,9.95
2022-08-24T01:09:32.585Z,9.95
2022-08-24T01:10:41.675Z,8.93
2022-08-24T01:11:43.399Z,9.40
2022-08-24T01:13:01.103Z,9.18
2022-08-24T01:14:04.282Z,9.50
2022-08-24T01:15:09.277Z,10.25
2022-08-24T01:16:13.427Z,9.25
2022-08-24T01:17:39.197Z,9.65
2022-08-24T01:18:51.378Z,9.70
2022-08-24T01:19:57.181Z,9.35
2022-08-24T01:21:22.461Z,9.70
2022-08-24T01:22:42.974Z,9.85
2022-08-24T01:23:56.104Z,9.40
2022-08-24T01:24:57.699Z,9.40
2022-08-24T01:26:00.487Z,9.10
2022-08-24T01:27:08.461Z,8.35
2022-08-24T01:28:16.673Z,8.07
2022-08-24T01:29:27.680Z,8.73
2022-08-24T01:30:30.494Z,8.57
2022-08-24T01:31:37.801Z,9.18
2022-08-24T01:32:40.762Z,9.00
2022-08-24T01:33:42.605Z,7.82
2022-08-24T01:34:44.352Z,8.13
2022-08-24T01:35:46.636Z,8.32
2022-08-24T01:36:51.803Z,8.65
2022-08-24T01:37:56.026Z,8.38
2022-08-24T01:39:02.281Z,8.27
2022-08-24T01:40:07.416Z,8.20
2022-08-24T01:41:09.104Z,8.75
2022-08-24T01:42:17.236Z,8.07
2022-08-24T01:43:18.868Z,8.63
2022-08-24T01:44:22.744Z,8.38
2022-08-24T01:45:24.332Z,8.32
2022-08-24T01:46:26.750Z,8.10
2022-08-24T01:47:29.170Z,8.43
2022-08-24T01:48:31.482Z,8.48
2022-08-24T01:49:36.970Z,8.50
2022-08-24T01:50:38.659Z,8.25
2022-08-24T01:51:42.491Z,8.93
2022-08-24T01:53:04.446Z,8.55
2022-08-24T01:54:07.680Z,8.55
2022-08-24T01:55:12.014Z,9.70
2022-08-24T01:56:13.675Z,8.38
2022-08-24T01:57:16.337Z,9.25
2022-08-24T01:58:18.876Z,7.80
2022-08-24T01:59:20.928Z,8.70
2022-08-24T02:00:22.790Z,8.52
2022-08-24T02:01:25.699Z,8.82
2022-08-24T02:02:31.137Z,8.73
2022-08-24T02:03:32.762Z,8.80
2022-08-24T02:04:36.327Z,9.55
2022-08-24T02:05:38.113Z,9.68
2022-08-24T02:06:39.810Z,9.15
2022-08-24T02:07:41.763Z,9.32
2022-08-24T02:08:43.355Z,9.00
2022-08-24T02:09:45.149Z,8.82
2022-08-24T02:10:50.950Z,9.07
2022-08-24T02:11:58.615Z,8.65
2022-08-24T02:13:00.440Z,9.35
2022-08-24T02:14:02.082Z,9.52
2022-08-24T02:15:06.310Z,9.65
2022-08-24T02:16:08.152Z,9.38
2022-08-24T02:17:10.307Z,9.43
2022-08-24T02:18:15.675Z,8.75
2022-08-24T02:19:17.451Z,9.15
2022-08-24T02:20:21.576Z,8.55
2022-08-24T02:21:24.175Z,9.70
2022-08-24T02:22:25.915Z,9.88
2022-08-24T02:23:28.816Z,9.40
2022-08-24T02:24:30.563Z,9.07
2022-08-24T02:25:32.779Z,9.45
2022-08-24T02:26:34.385Z,8.40
2022-08-24T02:27:36.006Z,9.07
2022-08-24T02:28:38.981Z,8.80
2022-08-24T02:29:40.583Z,9.20
2022-08-24T02:30:42.445Z,9.38
2022-08-24T02:31:44.108Z,9.93
2022-08-24T02:32:45.884Z,9.43
2022-08-24T02:33:47.540Z,9.77
2022-08-24T02:34:49.187Z,9.13
2022-08-24T02:35:54.407Z,9.10
2022-08-24T02:36:55.972Z,9.23
2022-08-24T02:37:58.625Z,9.57
2022-08-24T02:39:00.275Z,9.77
2022-08-24T02:40:02.244Z,9.88
2022-08-24T02:41:04.669Z,10.07
2022-08-24T02:42:06.559Z,10.53
2022-08-24T02:43:08.135Z,10.10
2022-08-24T02:44:09.705Z,10.37
2022-08-24T02:45:11.557Z,11.10
2022-08-24T02:46:21.207Z,10.83
2022-08-24T02:47:22.861Z,10.53
2022-08-24T02:48:40.052Z,10.27
2022-08-24T02:49:41.681Z,9.70
2022-08-24T02:50:46.455Z,11.50
2022-08-24T02:51:48.347Z,10.43
2022-08-24T02:52:50.307Z,11.23
2022-08-24T02:53:52.201Z,11.20
2022-08-24T02:54:53.764Z,11.23
2022-08-24T02:55:55.359Z,11.00
2022-08-24T02:56:56.945Z,10.40
2022-08-24T02:57:58.674Z,11.20
2022-08-24T02:59:01.352Z,10.40
2022-08-24T03:00:10.103Z,10.83
2022-08-24T03:01:14.364Z,10.70
2022-08-24T03:02:19.546Z,11.17
2022-08-24T03:03:21.131Z,10.50
2022-08-24T03:04:22.800Z,10.27
2022-08-24T03:05:25.998Z,10.00
2022-08-24T03:06:27.589Z,10.00
2022-08-24T03:07:29.193Z,9.90
2022-08-24T03:08:30.791Z,10.05
2022-08-24T03:09:36.282Z,10.38
2022-08-24T03:10:37.939Z,9.82
2022-08-24T03:11:40.414Z,10.32
2022-08-24T03:12:47.604Z,10.68
2022-08-24T03:13:49.306Z,10.95
2022-08-24T03:14:50.896Z,9.68
2022-08-24T03:15:52.631Z,10.20
2022-08-24T03:16:54.341Z,9.50
2022-08-24T03:17:56.323Z,9.60
2022-08-24T03:18:58.023Z,10.00
2022-08-24T03:20:00.798Z,10.50
2022-08-24T03:21:03.774Z,10.07
2022-08-24T03:22:05.541Z,9.85
2022-08-24T03:23:07.174Z,9.02
2022-08-24T03:24:09.460Z,9.70
2022-08-24T03:25:11.447Z,10.23
2022-08-24T03:26:13.701Z,9.70
2022-08-24T03:27:15.426Z,10.38
2022-08-24T03:28:17.344Z,10.38
2022-08-24T03:29:20.423Z,10.20
2022-08-24T03:30:25.738Z,9.70
2022-08-24T03:31:27.424Z,9.30
2022-08-24T03:32:29.029Z,9.50
2022-08-24T03:33:31.101Z,9.20
2022-08-24T03:34:32.695Z,9.77
2022-08-24T03:35:34.270Z,10.00
2022-08-24T03:36:35.831Z,10.15
2022-08-24T03:37:37.991Z,9.60
2022-08-24T03:38:39.672Z,9.85
2022-08-24T03:39:41.356Z,9.95
2022-08-24T03:40:43.136Z,10.15
2022-08-24T03:41:45.984Z,10.07
2022-08-24T03:42:47.584Z,10.20
2022-08-24T03:43:51.389Z,9.70
2022-08-24T03:44:53.034Z,10.18
2022-08-24T03:45:54.652Z,9.65
2022-08-24T03:46:56.514Z,9.85
2022-08-24T03:47:58.545Z,11.10
2022-08-24T03:49:00.171Z,10.02
2022-08-24T03:50:02.034Z,10.82
2022-08-24T03:51:03.851Z,10.85
2022-08-24T03:52:06.852Z,11.53
2022-08-24T03:53:08.424Z,10.77
2022-08-24T03:54:11.603Z,10.15
2022-08-24T03:55:13.833Z,10.30
2022-08-24T03:56:15.577Z,10.53
2022-08-24T03:57:17.159Z,10.45
2022-08-24T03:58:18.965Z,10.43
2022-08-24T03:59:20.736Z,10.98
2022-08-24T04:00:22.438Z,10.70
2022-08-24T04:01:24.673Z,10.38
2022-08-24T04:02:30.106Z,10.32
2022-08-24T04:03:40.356Z,9.95
2022-08-24T04:04:42.003Z,9.43
2022-08-24T04:05:45.863Z,10.10
2022-08-24T04:06:49.245Z,10.55
2022-08-24T04:07:50.861Z,9.48
2022-08-24T04:08:53.219Z,10.43
2022-08-24T04:09:54.816Z,10.40
2022-08-24T04:10:56.449Z,9.83
2022-08-24T04:11:58.125Z,10.95
2022-08-24T04:13:01.585Z,10.57
2022-08-24T04:14:04.221Z,11.20
2022-08-24T04:15:07.101Z,11.17
2022-08-24T04:16:12.862Z,10.85
2022-08-24T04:17:17.802Z,11.10
2022-08-24T04:18:19.932Z,10.73
2022-08-24T04:19:21.825Z,10.87
2022-08-24T04:20:24.170Z,10.85
2022-08-24T04:21:35.452Z,10.07
2022-08-24T04:22:37.325Z,10.90
2022-08-24T04:23:46.683Z,10.93
2022-08-24T04:24:49.584Z,11.85
2022-08-24T04:25:51.157Z,10.52
2022-08-24T04:26:52.818Z,10.77
2022-08-24T04:27:54.852Z,10.02
2022-08-24T04:28:57.747Z,10.32
2022-08-24T04:30:00.267Z,10.65
2022-08-24T04:31:05.515Z,11.20
2022-08-24T04:32:07.749Z,10.88
2022-08-24T04:33:13.846Z,11.10
2022-08-24T04:34:16.632Z,10.73
2022-08-24T04:35:18.305Z,11.02
2022-08-24T04:36:21.548Z,10.93
2022-08-24T04:37:29.113Z,10.52
2022-08-24T04:38:31.629Z,11.77
2022-08-24T04:39:33.721Z,10.68
2022-08-24T04:40:35.728Z,11.07
2022-08-24T04:41:38.121Z,11.48
2022-08-24T04:42:40.650Z,11.48
2022-08-24T04:43:45.166Z,11.18
2022-08-24T04:44:47.841Z,10.73
2022-08-24T04:45:51.417Z,11.13
2022-08-24T04:46:53.320Z,11.63
2022-08-24T04:47:55.161Z,10.55
2022-08-24T04:48:58.686Z,11.88
2022-08-24T04:50:00.343Z,10.85
2022-08-24T04:51:04.675Z,11.68
2022-08-24T04:52:08.296Z,12.07
2022-08-24T04:53:11.953Z,11.20
2022-08-24T04:54:13.657Z,11.13
2022-08-24T04:55:15.648Z,11.50
2022-08-24T04:56:24.876Z,11.25
2022-08-24T04:57:26.524Z,10.98
2022-08-24T04:58:30.146Z,11.25
2022-08-24T04:59:31.734Z,11.75
2022-08-24T05:00:33.583Z,10.65
2022-08-24T05:01:35.362Z,9.93
2022-08-24T05:02:44.724Z,11.05
2022-08-24T05:03:49.220Z,10.82
2022-08-24T05:04:50.824Z,10.85
2022-08-24T05:05:52.948Z,10.55
2022-08-24T05:06:54.594Z,10.80
2022-08-24T05:07:56.764Z,10.88
2022-08-24T05:09:00.391Z,10.48
2022-08-24T05:10:02.640Z,10.23
2022-08-24T05:11:08.639Z,11.48
2022-08-24T05:12:11.811Z,11.13
2022-08-24T05:13:14.787Z,10.75
2022-08-24T05:14:16.484Z,10.05
2022-08-24T05:15:18.241Z,10.32
2022-08-24T05:16:20.118Z,10.82
2022-08-24T05:17:21.735Z,10.85
2022-08-24T05:18:23.296Z,10.55
2022-08-24T05:19:25.102Z,10.98
2022-08-24T05:20:27.288Z,10.90
2022-08-24T05:21:30.877Z,10.35
2022-08-24T05:22:32.454Z,10.93
2022-08-24T05:23:35.242Z,10.57
2022-08-24T05:24:36.841Z,11.38
2022-08-24T05:25:39.558Z,11.48
2022-08-24T05:26:41.273Z,11.07
2022-08-24T05:27:43.918Z,11.38
2022-08-24T05:28:45.957Z,10.95
2022-08-24T05:29:47.605Z,11.10
2022-08-24T05:30:51.112Z,12.00
2022-08-24T05:31:53.522Z,10.35
2022-08-24T05:32:55.479Z,11.05
2022-08-24T05:33:58.647Z,10.40
2022-08-24T05:35:01.693Z,9.93
2022-08-24T05:36:04.776Z,10.38
2022-08-24T05:37:06.476Z,10.75
2022-08-24T05:38:09.297Z,10.93
2022-08-24T05:39:13.577Z,10.68
2022-08-24T05:40:18.716Z,9.95
2022-08-24T05:41:20.922Z,9.85
2022-08-24T05:42:22.542Z,11.63
2022-08-24T05:43:24.436Z,10.52
2022-08-24T05:44:30.762Z,10.38
2022-08-24T05:45:32.811Z,11.40
2022-08-24T05:46:34.926Z,10.95
2022-08-24T05:47:36.933Z,11.40
2022-08-24T05:48:38.943Z,11.35
2022-08-24T05:49:41.759Z,10.45
2022-08-24T05:50:43.495Z,14.73
2022-08-24T05:51:45.103Z,11.25
2022-08-24T05:52:46.704Z,11.20
2022-08-24T05:53:48.434Z,12.43
2022-08-24T05:54:56.548Z,10.55
2022-08-24T05:55:58.183Z,11.10
2022-08-24T05:57:04.743Z,11.85
2022-08-24T05:58:06.666Z,10.95
2022-08-24T05:59:08.246Z,11.45
2022-08-24T06:00:12.285Z,10.65
2022-08-24T06:01:18.048Z,11.15
2022-08-24T06:02:20.361Z,9.98
2022-08-24T06:03:22.028Z,10.57
2022-08-24T06:04:24.062Z,10.07
2022-08-24T06:05:27.964Z,10.73
2022-08-24T06:06:29.576Z,10.05
2022-08-24T06:07:31.162Z,9.13
2022-08-24T06:08:40.635Z,10.75
2022-08-24T06:09:43.178Z,10.55
2022-08-24T06:10:47.858Z,9.68
2022-08-24T06:11:49.515Z,10.38
2022-08-24T06:12:51.351Z,10.07
2022-08-24T06:13:56.301Z,9.88
2022-08-24T06:15:00.862Z,10.18
2022-08-24T06:16:47.926Z,10.23
2022-08-24T06:17:35.695Z,10.18
2022-08-24T06:18:38.727Z,10.32
2022-08-24T06:19:40.609Z,10.82
2022-08-24T06:20:42.879Z,10.38
2022-08-24T06:21:50.807Z,11.50
2022-08-24T06:22:52.398Z,10.40
2022-08-24T06:23:54.396Z,10.38
2022-08-24T06:25:14.543Z,10.48
2022-08-24T06:26:34.962Z,9.43
2022-08-24T06:27:36.943Z,9.70
2022-08-24T06:28:38.548Z,10.05
2022-08-24T06:29:40.103Z,10.05
2022-08-24T06:30:42.936Z,10.35
2022-08-24T06:31:47.078Z,10.90
2022-08-24T06:32:48.730Z,10.85
2022-08-24T06:33:52.162Z,9.90
2022-08-24T06:34:56.779Z,9.75
2022-08-24T06:35:58.774Z,10.13
2022-08-24T06:37:01.929Z,10.48
2022-08-24T06:38:04.529Z,10.50
2022-08-24T06:39:07.080Z,11.07
2022-08-24T06:40:11.555Z,9.32
2022-08-24T06:41:13.235Z,9.10
2022-08-24T06:42:14.801Z,9.73
2022-08-24T06:43:16.834Z,11.93
2022-08-24T06:44:18.854Z,11.50
2022-08-24T06:45:22.172Z,9.98
2022-08-24T06:46:26.484Z,9.77
2022-08-24T06:47:29.871Z,9.25
2022-08-24T06:48:31.940Z,10.07
2022-08-24T06:49:33.548Z,9.75
2022-08-24T06:50:35.578Z,9.75
2022-08-24T06:51:37.149Z,10.30
2022-08-24T06:52:39.647Z,9.82
2022-08-24T06:53:41.726Z,9.60
2022-08-24T06:54:43.329Z,9.13
2022-08-24T06:56:00.566Z,9.93
2022-08-24T06:57:02.495Z,9.57
2022-08-24T06:58:04.621Z,9.40
2022-08-24T06:59:06.613Z,9.80
2022-08-24T07:00:10.347Z,10.15
2022-08-24T07:01:17.560Z,9.40
2022-08-24T07:02:19.536Z,9.85
2022-08-24T07:03:21.265Z,9.50
2022-08-24T07:04:28.004Z,10.65
2022-08-24T07:05:30.227Z,10.32
2022-08-24T07:06:31.851Z,9.60
2022-08-24T07:07:33.481Z,8.80
2022-08-24T07:08:36.030Z,8.45
2022-08-24T07:09:37.979Z,8.85
2022-08-24T07:10:39.679Z,8.98
2022-08-24T07:11:41.861Z,8.07
2022-08-24T07:12:43.467Z,7.72
2022-08-24T07:13:49.609Z,8.77
2022-08-24T07:14:51.257Z,8.40
2022-08-24T07:15:53.648Z,8.48
2022-08-24T07:16:55.547Z,8.30
2022-08-24T07:17:57.646Z,8.50
2022-08-24T07:18:59.551Z,8.20
2022-08-24T07:20:01.899Z,8.25
2022-08-24T07:21:04.155Z,8.60
2022-08-24T07:22:05.777Z,8.02
2022-08-24T07:23:07.696Z,7.95
2022-08-24T07:24:10.680Z,7.85
2022-08-24T07:25:13.175Z,7.53
2022-08-24T07:26:22.757Z,7.20
2022-08-24T07:27:24.487Z,6.55
2022-08-24T07:28:27.692Z,6.50
2022-08-24T07:29:56.506Z,7.13
2022-08-24T07:30:55.140Z,6.75
2022-08-24T07:31:57.181Z,7.32
2022-08-24T07:32:59.208Z,6.82
2022-08-24T07:34:00.828Z,7.03
2022-08-24T07:35:02.548Z,6.78
2022-08-24T07:36:04.501Z,6.68
2022-08-24T07:37:07.907Z,6.93
2022-08-24T07:38:12.543Z,6.90
2022-08-24T07:39:14.394Z,6.95
2022-08-24T07:40:17.246Z,6.65
2022-08-24T07:41:40.306Z,7.03
2022-08-24T07:42:41.604Z,7.20
2022-08-24T07:43:43.256Z,7.63
2022-08-24T07:44:44.941Z,6.35
2022-08-24T07:45:48.021Z,7.78
2022-08-24T07:46:49.867Z,7.20
2022-08-24T07:49:11.560Z,6.78
2022-08-24T07:50:15.455Z,7.00
2022-08-24T07:51:19.431Z,6.82
2022-08-24T07:52:21.303Z,6.55
2022-08-24T07:53:27.918Z,5.78
2022-08-24T07:54:34.055Z,6.40
2022-08-24T07:55:35.941Z,6.68
2022-08-24T07:56:48.005Z,6.57
2022-08-24T07:57:49.732Z,5.95
2022-08-24T07:58:54.406Z,6.35
2022-08-24T07:59:58.291Z,6.35
2022-08-24T08:00:59.938Z,6.10
2022-08-24T08:02:02.191Z,6.75
2022-08-24T08:03:05.004Z,5.72
2022-08-24T08:04:06.831Z,5.75
2022-08-24T08:05:09.084Z,5.43
2022-08-24T08:06:16.072Z,5.00
2022-08-24T08:07:18.047Z,5.90
2022-08-24T08:08:20.281Z,5.65
2022-08-24T08:09:21.948Z,5.55
2022-08-24T08:10:23.745Z,5.05
2022-08-24T08:11:25.513Z,5.25
2022-08-24T08:12:27.149Z,5.22
2022-08-24T08:13:29.986Z,5.28
2022-08-24T08:14:31.550Z,5.90
2022-08-24T08:15:33.723Z,5.45
2022-08-24T08:16:35.510Z,5.55
2022-08-24T08:17:38.679Z,5.55
2022-08-24T08:18:40.333Z,5.40
2022-08-24T08:19:43.161Z,6.13
2022-08-24T08:20:45.240Z,5.88
2022-08-24T08:22:08.435Z,5.40
2022-08-24T08:23:29.132Z,6.20
2022-08-24T08:24:30.876Z,5.50
2022-08-24T08:25:32.676Z,6.05
2022-08-24T08:26:34.277Z,5.45
2022-08-24T08:27:36.325Z,5.15
2022-08-24T08:28:38.256Z,5.30
2022-08-24T08:29:40.649Z,5.75
2022-08-24T08:30:42.640Z,5.32
2022-08-24T08:31:44.576Z,5.50
2022-08-24T08:32:46.420Z,5.53
2022-08-24T08:33:48.043Z,5.40
2022-08-24T08:34:50.158Z,5.68
2022-08-24T08:35:56.299Z,5.18
2022-08-24T08:36:59.055Z,5.60
2022-08-24T08:38:01.061Z,5.72
2022-08-24T08:39:03.564Z,5.05
2022-08-24T08:40:17.823Z,5.40
2022-08-24T08:41:37.960Z,5.70
2022-08-24T08:43:04.839Z,5.15
2022-08-24T08:44:15.531Z,5.03
2022-08-24T08:45:59.410Z,4.95
2022-08-24T08:47:06.823Z,5.10
2022-08-24T08:48:43.586Z,5.50
2022-08-24T08:50:18.781Z,5.47
2022-08-24T08:52:10.593Z,5.35
2022-08-24T08:53:33.401Z,6.30
2022-08-24T08:55:00.226Z,5.90
2022-08-24T08:56:01.879Z,5.85
2022-08-24T08:57:24.982Z,5.80
2022-08-24T08:58:59.464Z,5.20
2022-08-24T09:00:25.169Z,5.13
2022-08-24T09:01:46.988Z,5.68
2022-08-24T09:03:07.440Z,5.32
2022-08-24T09:04:21.653Z,5.30
2022-08-24T09:05:59.570Z,5.32
2022-08-24T09:07:33.081Z,5.30
2022-08-24T09:08:59.066Z,4.75
2022-08-24T09:10:33.866Z,4.55
2022-08-24T09:11:56.393Z,5.35
2022-08-24T09:13:45.751Z,5.78
2022-08-24T09:15:02.740Z,5.47
2022-08-24T09:16:12.240Z,4.95
2022-08-24T09:17:32.814Z,5.88
2022-08-24T09:18:50.761Z,5.43
2022-08-24T09:20:12.649Z,4.80
2022-08-24T09:21:39.047Z,5.43
2022-08-24T09:22:50.031Z,5.50
2022-08-24T09:24:07.688Z,5.30
2022-08-24T09:25:24.756Z,5.20
2022-08-24T09:26:33.394Z,5.20
2022-08-24T09:28:00.922Z,5.22
2022-08-24T09:30:57.717Z,4.93
2022-08-24T09:32:13.057Z,5.35
2022-08-24T09:33:41.574Z,5.45
2022-08-24T09:34:52.617Z,5.53
2022-08-24T09:36:08.524Z,5.40
2022-08-24T09:37:24.605Z,5.25
2022-08-24T09:38:47.587Z,5.88
2022-08-24T09:40:34.561Z,5.13
2022-08-24T09:42:17.485Z,5.47
2022-08-24T09:43:24.992Z,5.50
2022-08-24T09:44:44.836Z,5.28
2022-08-24T09:46:10.507Z,5.18
2022-08-24T09:47:37.473Z,5.50
2022-08-24T09:48:49.357Z,5.15
2022-08-24T09:49:59.727Z,5.45
2022-08-24T09:51:01.641Z,5.70
2022-08-24T09:52:24.767Z,4.97
2022-08-24T09:54:00.273Z,5.18
2022-08-24T09:55:08.163Z,5.10
2022-08-24T09:56:36.800Z,5.68
2022-08-24T09:57:59.801Z,5.60
2022-08-24T09:59:08.019Z,5.43
2022-08-24T10:00:34.681Z,5.90
2022-08-24T10:01:45.811Z,5.22
2022-08-24T10:03:03.097Z,5.22
2022-08-24T10:04:27.965Z,5.60
2022-08-24T10:06:00.128Z,5.60
2022-08-24T10:07:32.665Z,5.00
2022-08-24T10:08:42.918Z,5.80
2022-08-24T10:10:07.782Z,5.55
2022-08-24T10:11:31.754Z,4.88
2022-08-24T10:12:55.989Z,4.97
2022-08-24T10:14:36.831Z,5.50
2022-08-24T10:15:47.924Z,5.22
2022-08-24T10:17:43.741Z,5.47
2022-08-24T10:19:05.514Z,5.45
2022-08-24T10:20:29.488Z,5.40
2022-08-24T10:21:58.509Z,5.10
2022-08-24T10:23:18.900Z,5.85
2022-08-24T10:24:20.459Z,5.05
2022-08-24T10:25:51.570Z,5.35
2022-08-24T10:27:06.524Z,5.63
2022-08-24T10:28:13.876Z,5.43
2022-08-24T10:30:00.877Z,4.97
2022-08-24T10:31:09.729Z,5.30
2022-08-24T10:32:32.393Z,5.25
2022-08-24T10:34:04.689Z,5.15
2022-08-24T10:35:52.412Z,5.50
2022-08-24T10:37:21.593Z,5.22
2022-08-24T10:38:52.988Z,5.20
2022-08-24T10:40:32.936Z,5.45
2022-08-24T10:41:48.730Z,5.18
2022-08-24T10:43:28.533Z,4.85
2022-08-24T10:44:40.798Z,5.10
2022-08-24T10:45:54.213Z,5.10
2022-08-24T10:47:08.046Z,5.47
2022-08-24T10:48:36.061Z,5.25
2022-08-24T10:49:37.659Z,4.70
2022-08-24T10:50:49.624Z,4.90
2022-08-24T10:52:18.853Z,5.53
2022-08-24T10:53:33.974Z,4.75
2022-08-24T10:54:37.080Z,5.03
2022-08-24T10:55:39.094Z,4.72
2022-08-24T10:57:09.205Z,4.57
2022-08-24T10:58:19.546Z,4.55
2022-08-24T10:59:31.858Z,4.72
2022-08-24T11:00:33.725Z,4.93
2022-08-24T11:01:38.423Z,4.88
2022-08-24T11:02:42.879Z,5.00
2022-08-24T11:04:07.419Z,4.75
2022-08-24T11:05:13.079Z,4.90
2022-08-24T11:06:16.852Z,4.93
2022-08-24T11:07:21.691Z,5.10
2022-08-24T11:08:26.113Z,4.75
2022-08-24T11:10:17.868Z,4.65
2022-08-24T11:11:46.951Z,4.88
2022-08-24T11:12:48.704Z,4.60
2022-08-24T11:13:59.165Z,5.18
2022-08-24T11:15:23.989Z,4.60
2022-08-24T11:16:31.009Z,4.80
2022-08-24T11:17:34.786Z,4.68
2022-08-24T11:18:49.496Z,4.57
2022-08-24T11:19:52.415Z,4.93
2022-08-24T11:20:55.839Z,4.35
2022-08-24T11:22:01.943Z,4.78
2022-08-24T11:23:07.995Z,4.85
2022-08-24T11:24:18.527Z,4.47
2022-08-24T11:25:26.547Z,4.65
2022-08-24T11:26:28.947Z,4.63
2022-08-24T11:27:50.492Z,4.82
2022-08-24T11:29:01.183Z,4.53
2022-08-24T11:30:11.995Z,4.32
2022-08-24T11:31:22.689Z,4.60
2022-08-24T11:32:30.124Z,4.70
2022-08-24T11:33:44.319Z,4.57
2022-08-24T11:34:46.902Z,4.50
2022-08-24T11:35:48.493Z,4.55
2022-08-24T11:36:50.067Z,4.32
2022-08-24T11:37:57.141Z,4.88
2022-08-24T11:39:23.745Z,4.50
2022-08-24T11:40:29.749Z,4.43
2022-08-24T11:41:39.039Z,4.80
2022-08-24T11:42:58.798Z,4.35
2022-08-24T11:44:16.375Z,4.57
2022-08-24T11:45:23.907Z,4.43
2022-08-24T11:46:37.585Z,4.50
2022-08-24T11:47:50.157Z,4.38
2022-08-24T11:49:25.435Z,4.80
2022-08-24T11:50:42.213Z,4.65
2022-08-24T11:52:12.046Z,4.40
2022-08-24T11:55:26.743Z,3.85
2022-08-24T11:56:41.274Z,4.70
2022-08-24T11:58:17.433Z,4.90
2022-08-24T11:59:38.717Z,4.63
2022-08-24T12:00:54.284Z,4.65
2022-08-24T12:02:00.702Z,4.55
2022-08-24T12:03:06.280Z,4.50
2022-08-24T12:04:17.010Z,5.20
2022-08-24T12:05:21.213Z,4.25
2022-08-24T12:06:32.535Z,4.47
2022-08-24T12:07:34.545Z,4.95
2022-08-24T12:08:45.892Z,4.57
2022-08-24T12:10:09.203Z,4.47
2022-08-24T12:11:29.619Z,4.80
2022-08-24T12:12:54.626Z,4.40
2022-08-24T12:14:33.532Z,4.75
2022-08-24T12:16:03.172Z,4.68
2022-08-24T12:17:12.926Z,4.43
2022-08-24T12:18:31.063Z,4.82
2022-08-24T12:19:42.017Z,4.50
2022-08-24T12:20:49.424Z,4.95
2022-08-24T12:21:55.788Z,4.63
2022-08-24T12:23:02.652Z,4.72
2022-08-24T12:24:08.913Z,4.88
2022-08-24T12:25:42.769Z,4.68
2022-08-24T12:26:49.845Z,4.85
2022-08-24T12:27:52.422Z,5.00
2022-08-24T12:29:01.431Z,4.93
2022-08-24T12:30:07.620Z,4.85
2022-08-24T12:31:31.170Z,4.80
2022-08-24T12:32:47.920Z,4.68
2022-08-24T12:33:54.227Z,4.40
2022-08-24T12:34:59.027Z,4.70
2022-08-24T12:36:07.517Z,4.70
2022-08-24T12:37:30.577Z,4.55
2022-08-24T12:38:38.239Z,4.63
2022-08-24T12:39:54.270Z,4.68
2022-08-24T12:41:02.357Z,4.18
2022-08-24T12:42:19.046Z,4.38
2022-08-24T12:43:30.895Z,4.47
2022-08-24T12:44:45.540Z,4.40
2022-08-24T12:45:47.734Z,4.20
2022-08-24T12:46:54.408Z,4.88
2022-08-24T12:48:22.204Z,4.47
2022-08-24T12:49:27.748Z,4.65
2022-08-24T12:51:16.318Z,4.53
2022-08-24T12:52:29.688Z,4.35
2022-08-24T12:53:34.232Z,4.10
2022-08-24T12:54:43.246Z,4.35
2022-08-24T12:55:53.780Z,4.63
2022-08-24T12:57:25.887Z,3.97
2022-08-24T12:58:53.757Z,3.85
2022-08-24T13:00:04.861Z,4.60
2022-08-24T13:01:07.666Z,4.53
2022-08-24T13:02:15.236Z,4.55
2022-08-24T13:03:33.272Z,4.30
2022-08-24T13:04:50.208Z,4.20
2022-08-24T13:05:57.870Z,4.68
2022-08-24T13:07:05.610Z,4.25
2022-08-24T13:08:41.275Z,3.85
2022-08-24T13:09:57.975Z,4.25
2022-08-24T13:11:06.099Z,4.32
2022-08-24T13:12:32.951Z,3.88
2022-08-24T13:13:45.389Z,4.45
2022-08-24T13:14:51.045Z,4.57
2022-08-24T13:15:59.410Z,4.43
2022-08-24T13:17:00.968Z,4.35
2022-08-24T13:18:09.268Z,4.60
2022-08-24T13:19:23.060Z,4.47
2022-08-24T13:20:27.545Z,4.68
2022-08-24T13:22:10.738Z,4.45
2022-08-24T13:23:12.959Z,4.97
2022-08-24T13:24:43.840Z,4.15
2022-08-24T13:25:48.103Z,4.22
2022-08-24T13:26:49.690Z,4.57
2022-08-24T13:28:04.713Z,4.40
2022-08-24T13:29:07.872Z,4.55
2022-08-24T13:30:28.055Z,4.20
2022-08-24T13:31:34.995Z,4.80
2022-08-24T13:33:04.321Z,4.22
2022-08-24T13:34:05.853Z,4.32
2022-08-24T13:35:35.005Z,4.22
2022-08-24T13:37:11.241Z,4.72
2022-08-24T13:38:34.706Z,4.32
2022-08-24T13:40:02.084Z,4.88
2022-08-24T13:41:15.661Z,4.40
2022-08-24T13:42:46.814Z,4.32
2022-08-24T13:43:51.452Z,4.25
2022-08-24T13:45:18.100Z,4.18
2022-08-24T13:46:40.683Z,4.53
2022-08-24T13:47:57.971Z,3.97
2022-08-24T13:49:24.908Z,4.43
2022-08-24T13:50:59.693Z,4.60
2022-08-24T13:52:29.715Z,4.90
2022-08-24T13:53:52.673Z,5.00
2022-08-24T13:55:04.341Z,5.65
2022-08-24T13:56:18.126Z,6.25
2022-08-24T13:57:36.682Z,5.22
2022-08-24T13:58:46.985Z,5.72
2022-08-24T13:59:57.636Z,5.13
2022-08-24T14:01:18.448Z,5.70
2022-08-24T14:02:45.377Z,5.20
2022-08-24T14:04:00.095Z,5.32
2022-08-24T14:05:23.399Z,5.15
2022-08-24T14:06:36.207Z,5.60
2022-08-24T14:08:13.200Z,4.90
2022-08-24T14:09:26.171Z,5.55
2022-08-24T14:10:59.912Z,5.50
2022-08-24T14:12:12.093Z,5.25
2022-08-24T14:13:35.338Z,5.38
2022-08-24T14:14:42.932Z,5.53
2022-08-24T14:16:16.878Z,4.95
2022-08-24T14:18:03.744Z,5.65
2022-08-24T14:19:25.756Z,5.40
2022-08-24T14:20:48.438Z,5.57
2022-08-24T14:22:11.593Z,5.47
2022-08-24T14:23:46.063Z,5.75
2022-08-24T14:24:56.112Z,5.63
2022-08-24T14:26:40.949Z,5.05
2022-08-24T14:27:46.348Z,5.30
2022-08-24T14:28:48.473Z,5.25
2022-08-24T14:29:50.408Z,5.28
2022-08-24T14:31:13.731Z,5.63
2022-08-24T14:32:24.495Z,5.68
2022-08-24T14:33:33.238Z,4.88
2022-08-24T14:35:04.417Z,5.40
2022-08-24T14:36:19.223Z,5.40
2022-08-24T14:37:30.555Z,5.05
2022-08-24T14:38:46.068Z,5.35
2022-08-24T14:40:08.939Z,5.18
2022-08-24T14:41:32.075Z,4.93
2022-08-24T14:42:37.847Z,5.43
2022-08-24T14:44:13.124Z,5.80
2022-08-24T14:45:33.441Z,5.57
2022-08-24T14:47:11.302Z,5.93
2022-08-24T14:48:32.533Z,6.47
2022-08-24T14:49:36.558Z,6.22
2022-08-24T14:50:48.780Z,6.78
2022-08-24T14:52:08.384Z,7.35
2022-08-24T14:53:20.974Z,7.07
2022-08-24T14:54:57.121Z,6.90
2022-08-24T14:56:26.197Z,6.65
2022-08-24T14:57:27.750Z,7.05
2022-08-24T14:59:07.683Z,6.50
2022-08-24T15:00:16.532Z,7.10
2022-08-24T15:01:57.900Z,6.28
2022-08-24T15:03:52.040Z,7.32
2022-08-24T15:05:05.885Z,7.32
2022-08-24T15:06:29.532Z,7.30
2022-08-24T15:07:36.543Z,7.47
2022-08-24T15:08:43.089Z,7.40
2022-08-24T15:09:45.800Z,6.20
2022-08-24T15:11:07.477Z,6.28
2022-08-24T15:12:19.344Z,6.03
2022-08-24T15:13:41.173Z,6.68
2022-08-24T15:14:57.573Z,5.68
2022-08-24T15:16:11.029Z,6.63
2022-08-24T15:17:17.333Z,5.63
2022-08-24T15:18:20.949Z,7.03